createdAt,value
2022-07-25T00:00:32.248Z,1015.81
2022-07-25T00:01:02.294Z,1015.98
2022-07-25T00:01:32.989Z,1015.98
2022-07-25T00:02:03.612Z,1015.71
2022-07-25T00:02:34.845Z,1015.71
2022-07-25T00:03:05.718Z,1015.81
2022-07-25T00:03:36.740Z,1015.81
2022-07-25T00:04:08.334Z,1015.71
2022-07-25T00:04:41.886Z,1015.71
2022-07-25T00:05:16.333Z,1015.92
2022-07-25T00:05:41.046Z,1015.92
2022-07-25T00:06:13.039Z,1015.61
2022-07-25T00:06:43.655Z,1015.61
2022-07-25T00:07:13.939Z,1015.61
2022-07-25T00:07:45.259Z,1015.61
2022-07-25T00:08:15.974Z,1015.81
2022-07-25T00:08:46.930Z,1015.81
2022-07-25T00:09:20.529Z,1015.71
2022-07-25T00:09:49.255Z,1015.71
2022-07-25T00:10:22.808Z,1015.61
2022-07-25T00:10:53.334Z,1015.61
2022-07-25T00:11:21.567Z,1015.81
2022-07-25T00:11:53.042Z,1015.81
2022-07-25T00:12:23.618Z,1015.41
2022-07-25T00:12:54.761Z,1015.41
2022-07-25T00:13:25.959Z,1015.61
2022-07-25T00:13:56.864Z,1015.61
2022-07-25T00:14:27.928Z,1015.71
2022-07-25T00:15:01.879Z,1015.81
2022-07-25T00:15:29.809Z,1015.81
2022-07-25T00:16:00.932Z,1015.71
2022-07-25T00:16:31.899Z,1015.71
2022-07-25T00:17:05.814Z,1015.71
2022-07-25T00:17:34.410Z,1015.71
2022-07-25T00:18:04.915Z,1015.71
2022-07-25T00:18:36.214Z,1015.71
2022-07-25T00:19:16.058Z,1015.51
2022-07-25T00:19:37.898Z,1015.51
2022-07-25T00:20:09.615Z,1015.61
2022-07-25T00:20:40.009Z,1015.61
2022-07-25T00:21:11.618Z,1015.41
2022-07-25T00:21:44.544Z,1015.41
2022-07-25T00:22:15.181Z,1015.51
2022-07-25T00:22:43.970Z,1015.51
2022-07-25T00:23:14.779Z,1015.51
2022-07-25T00:23:45.759Z,1015.51
2022-07-25T00:24:17.512Z,1015.51
2022-07-25T00:24:47.809Z,1015.51
2022-07-25T00:25:19.899Z,1015.51
2022-07-25T00:25:49.819Z,1015.51
2022-07-25T00:26:21.138Z,1015.61
2022-07-25T00:26:51.815Z,1015.61
2022-07-25T00:27:25.614Z,1015.61
2022-07-25T00:27:53.848Z,1015.61
2022-07-25T00:28:24.660Z,1015.61
2022-07-25T00:28:56.499Z,1015.61
2022-07-25T00:29:26.854Z,1015.61
2022-07-25T00:29:57.818Z,1015.61
2022-07-25T00:30:29.619Z,1015.81
2022-07-25T00:31:00.263Z,1015.81
2022-07-25T00:31:37.169Z,1015.61
2022-07-25T00:32:01.649Z,1015.51
2022-07-25T00:32:35.692Z,1015.51
2022-07-25T00:33:06.843Z,1015.61
2022-07-25T00:33:34.852Z,1015.61
2022-07-25T00:34:06.221Z,1015.61
2022-07-25T00:34:36.619Z,1015.61
2022-07-25T00:35:08.074Z,1015.51
2022-07-25T00:35:38.856Z,1015.51
2022-07-25T00:36:10.021Z,1015.51
2022-07-25T00:36:41.333Z,1015.51
2022-07-25T00:37:11.960Z,1015.20
2022-07-25T00:37:45.080Z,1015.20
2022-07-25T00:38:17.535Z,1015.31
2022-07-25T00:38:47.533Z,1015.31
2022-07-25T00:39:16.079Z,1015.41
2022-07-25T00:39:46.834Z,1015.41
2022-07-25T00:40:18.614Z,1015.20
2022-07-25T00:40:54.263Z,1015.20
2022-07-25T00:41:19.871Z,1015.51
2022-07-25T00:41:51.453Z,1015.51
2022-07-25T00:42:22.471Z,1015.41
2022-07-25T00:42:52.995Z,1015.41
2022-07-25T00:43:24.071Z,1015.81
2022-07-25T00:44:00.795Z,1015.81
2022-07-25T00:44:28.860Z,1015.31
2022-07-25T00:44:57.006Z,1015.31
2022-07-25T00:45:28.522Z,1015.61
2022-07-25T00:46:02.025Z,1015.61
2022-07-25T00:46:30.182Z,1015.61
2022-07-25T00:47:01.099Z,1015.41
2022-07-25T00:47:31.957Z,1015.41
2022-07-25T00:48:05.700Z,1015.31
2022-07-25T00:48:33.995Z,1015.31
2022-07-25T00:49:05.228Z,1015.61
2022-07-25T00:49:41.902Z,1015.61
2022-07-25T00:50:07.343Z,1015.10
2022-07-25T00:50:38.060Z,1015.10
2022-07-25T00:51:08.994Z,1015.51
2022-07-25T00:51:39.901Z,1015.51
2022-07-25T00:52:11.001Z,1015.31
2022-07-25T00:52:42.000Z,1015.31
2022-07-25T00:53:13.001Z,1015.51
2022-07-25T00:53:44.272Z,1015.51
2022-07-25T00:54:15.481Z,1015.20
2022-07-25T00:54:46.519Z,1015.20
2022-07-25T00:55:18.311Z,1015.31
2022-07-25T00:55:48.877Z,1015.31
2022-07-25T00:56:19.098Z,1015.51
2022-07-25T00:56:51.117Z,1015.51
2022-07-25T00:57:21.301Z,1015.61
2022-07-25T00:57:52.232Z,1015.61
2022-07-25T00:58:22.750Z,1015.71
2022-07-25T00:58:53.818Z,1015.71
2022-07-25T00:59:24.984Z,1015.31
2022-07-25T00:59:56.590Z,1015.31
2022-07-25T01:00:28.209Z,1015.61
2022-07-25T01:00:58.191Z,1015.61
2022-07-25T01:01:29.203Z,1015.51
2022-07-25T01:02:00.151Z,1015.51
2022-07-25T01:02:31.172Z,1015.41
2022-07-25T01:03:01.982Z,1015.41
2022-07-25T01:03:33.145Z,1015.41
2022-07-25T01:04:04.471Z,1015.51
2022-07-25T01:04:35.160Z,1015.51
2022-07-25T01:05:06.191Z,1015.51
2022-07-25T01:05:37.019Z,1015.51
2022-07-25T01:06:08.020Z,1015.51
2022-07-25T01:06:39.021Z,1015.51
2022-07-25T01:07:10.121Z,1015.41
2022-07-25T01:07:41.077Z,1015.41
2022-07-25T01:08:15.059Z,1015.41
2022-07-25T01:08:44.301Z,1015.41
2022-07-25T01:09:14.220Z,1015.61
2022-07-25T01:09:45.392Z,1015.61
2022-07-25T01:10:19.463Z,1015.41
2022-07-25T01:10:48.390Z,1015.41
2022-07-25T01:11:18.155Z,1015.51
2022-07-25T01:11:49.180Z,1015.51
2022-07-25T01:12:20.059Z,1015.61
2022-07-25T01:12:51.278Z,1015.61
2022-07-25T01:13:22.003Z,1015.51
2022-07-25T01:13:53.020Z,1015.51
2022-07-25T01:14:24.035Z,1015.41
2022-07-25T01:14:55.259Z,1015.41
2022-07-25T01:15:26.740Z,1015.51
2022-07-25T01:15:57.234Z,1015.51
2022-07-25T01:16:28.064Z,1015.51
2022-07-25T01:16:59.109Z,1015.51
2022-07-25T01:17:30.181Z,1015.51
2022-07-25T01:18:01.198Z,1015.51
2022-07-25T01:18:32.120Z,1015.51
2022-07-25T01:19:03.218Z,1015.51
2022-07-25T01:19:34.381Z,1015.51
2022-07-25T01:20:05.676Z,1015.41
2022-07-25T01:20:35.898Z,1015.41
2022-07-25T01:21:07.420Z,1015.51
2022-07-25T01:21:38.100Z,1015.51
2022-07-25T01:22:09.259Z,1015.51
2022-07-25T01:22:40.462Z,1015.51
2022-07-25T01:23:11.339Z,1015.41
2022-07-25T01:23:42.990Z,1015.41
2022-07-25T01:24:16.378Z,1015.51
2022-07-25T01:24:43.819Z,1015.51
2022-07-25T01:25:15.260Z,1015.71
2022-07-25T01:25:46.979Z,1015.71
2022-07-25T01:26:17.700Z,1015.41
2022-07-25T01:26:51.277Z,1015.41
2022-07-25T01:27:19.819Z,1015.41
2022-07-25T01:27:55.212Z,1015.41
2022-07-25T01:28:22.124Z,1015.61
2022-07-25T01:28:52.211Z,1015.61
2022-07-25T01:29:26.099Z,1015.41
2022-07-25T01:29:54.361Z,1015.41
2022-07-25T01:30:26.330Z,1015.41
2022-07-25T01:30:56.504Z,1015.41
2022-07-25T01:31:27.748Z,1015.41
2022-07-25T01:31:59.071Z,1015.41
2022-07-25T01:32:29.341Z,1015.41
2022-07-25T01:33:00.390Z,1015.41
2022-07-25T01:33:31.389Z,1015.31
2022-07-25T01:34:02.583Z,1015.31
2022-07-25T01:34:33.459Z,1015.31
2022-07-25T01:35:04.644Z,1015.31
2022-07-25T01:35:40.170Z,1015.31
2022-07-25T01:36:06.261Z,1015.61
2022-07-25T01:36:37.991Z,1015.61
2022-07-25T01:37:08.140Z,1015.31
2022-07-25T01:37:39.878Z,1015.31
2022-07-25T01:38:13.180Z,1015.31
2022-07-25T01:38:41.311Z,1015.31
2022-07-25T01:39:12.073Z,1015.20
2022-07-25T01:39:44.720Z,1015.20
2022-07-25T01:40:14.762Z,1015.41
2022-07-25T01:40:48.260Z,1015.41
2022-07-25T01:41:22.302Z,1015.51
2022-07-25T01:41:47.441Z,1015.51
2022-07-25T01:42:18.098Z,1015.31
2022-07-25T01:42:49.124Z,1015.31
2022-07-25T01:43:20.281Z,1015.41
2022-07-25T01:43:51.121Z,1015.41
2022-07-25T01:44:22.476Z,1015.20
2022-07-25T01:44:53.235Z,1015.20
2022-07-25T01:45:25.151Z,1015.20
2022-07-25T01:45:55.346Z,1015.20
2022-07-25T01:46:26.572Z,1015.41
2022-07-25T01:46:57.260Z,1015.41
2022-07-25T01:47:27.910Z,1015.31
2022-07-25T01:47:58.901Z,1015.31
2022-07-25T01:48:39.091Z,1015.31
2022-07-25T01:49:01.081Z,1015.31
2022-07-25T01:49:32.193Z,1015.31
2022-07-25T01:50:03.590Z,1015.20
2022-07-25T01:50:34.258Z,1015.20
2022-07-25T01:51:05.395Z,1015.41
2022-07-25T01:51:36.064Z,1015.41
2022-07-25T01:52:06.938Z,1015.31
2022-07-25T01:52:38.160Z,1015.31
2022-07-25T01:53:09.151Z,1015.41
2022-07-25T01:53:46.315Z,1015.41
2022-07-25T01:54:14.020Z,1015.20
2022-07-25T01:54:42.139Z,1015.20
2022-07-25T01:55:13.753Z,1015.10
2022-07-25T01:55:44.160Z,1015.10
2022-07-25T01:56:19.418Z,1015.31
2022-07-25T01:56:47.091Z,1015.31
2022-07-25T01:57:17.150Z,1015.10
2022-07-25T01:57:50.760Z,1015.10
2022-07-25T01:58:19.219Z,1015.10
2022-07-25T01:58:54.060Z,1015.10
2022-07-25T01:59:21.315Z,1015.00
2022-07-25T01:59:52.620Z,1015.00
2022-07-25T02:00:25.841Z,1015.20
2022-07-25T02:00:54.514Z,1015.20
2022-07-25T02:01:25.101Z,1015.31
2022-07-25T02:01:56.423Z,1015.31
2022-07-25T02:02:27.422Z,1015.31
2022-07-25T02:02:58.150Z,1015.31
2022-07-25T02:03:28.983Z,1015.00
2022-07-25T02:04:00.041Z,1015.00
2022-07-25T02:04:34.410Z,1015.31
2022-07-25T02:05:02.773Z,1015.31
2022-07-25T02:05:33.340Z,1015.31
2022-07-25T02:06:07.280Z,1015.10
2022-07-25T02:06:35.940Z,1015.10
2022-07-25T02:07:08.699Z,1015.31
2022-07-25T02:07:43.353Z,1015.31
2022-07-25T02:08:11.430Z,1015.31
2022-07-25T02:08:39.380Z,1015.31
2022-07-25T02:09:13.219Z,1015.20
2022-07-25T02:09:41.300Z,1015.20
2022-07-25T02:10:12.718Z,1015.31
2022-07-25T02:10:43.389Z,1015.31
2022-07-25T02:11:14.430Z,1015.31
2022-07-25T02:11:45.339Z,1015.31
2022-07-25T02:12:16.261Z,1015.10
2022-07-25T02:12:47.912Z,1015.10
2022-07-25T02:13:18.753Z,1015.10
2022-07-25T02:13:49.556Z,1015.10
2022-07-25T02:14:20.739Z,1015.20
2022-07-25T02:14:51.779Z,1015.20
2022-07-25T02:15:23.801Z,1015.20
2022-07-25T02:15:53.677Z,1015.20
2022-07-25T02:16:28.767Z,1015.10
2022-07-25T02:16:55.434Z,1015.10
2022-07-25T02:17:26.758Z,1015.00
2022-07-25T02:17:58.802Z,1015.00
2022-07-25T02:18:28.600Z,1015.10
2022-07-25T02:18:59.020Z,1015.10
2022-07-25T02:19:30.276Z,1015.10
2022-07-25T02:20:01.548Z,1015.10
2022-07-25T02:20:32.378Z,1015.10
2022-07-25T02:21:03.389Z,1015.20
2022-07-25T02:21:34.383Z,1015.20
2022-07-25T02:22:05.363Z,1015.10
2022-07-25T02:22:36.916Z,1015.10
2022-07-25T02:23:07.260Z,1015.10
2022-07-25T02:23:38.111Z,1015.10
2022-07-25T02:24:09.807Z,1015.20
2022-07-25T02:24:40.339Z,1015.20
2022-07-25T02:25:17.340Z,1015.20
2022-07-25T02:25:42.450Z,1015.20
2022-07-25T02:26:13.397Z,1015.41
2022-07-25T02:26:44.032Z,1015.41
2022-07-25T02:27:15.360Z,1015.00
2022-07-25T02:27:46.420Z,1015.00
2022-07-25T02:28:20.380Z,1015.20
2022-07-25T02:28:48.520Z,1015.20
2022-07-25T02:29:21.747Z,1015.10
2022-07-25T02:29:50.343Z,1015.10
2022-07-25T02:30:27.184Z,1014.90
2022-07-25T02:30:52.484Z,1014.90
2022-07-25T02:31:25.234Z,1015.20
2022-07-25T02:31:54.304Z,1015.20
2022-07-25T02:32:26.819Z,1015.00
2022-07-25T02:32:56.060Z,1015.00
2022-07-25T02:33:27.542Z,1015.00
2022-07-25T02:33:58.871Z,1015.00
2022-07-25T02:34:29.070Z,1014.70
2022-07-25T02:35:12.968Z,1014.90
2022-07-25T02:35:31.620Z,1014.90
2022-07-25T02:36:02.991Z,1014.80
2022-07-25T02:36:33.595Z,1014.80
2022-07-25T02:37:04.574Z,1014.90
2022-07-25T02:37:36.079Z,1014.90
2022-07-25T02:38:06.580Z,1014.90
2022-07-25T02:38:37.499Z,1014.90
2022-07-25T02:39:08.748Z,1014.80
2022-07-25T02:39:45.716Z,1014.80
2022-07-25T02:40:11.179Z,1015.00
2022-07-25T02:40:41.463Z,1015.00
2022-07-25T02:41:12.419Z,1014.90
2022-07-25T02:41:43.302Z,1014.90
2022-07-25T02:42:17.461Z,1015.00
2022-07-25T02:42:45.499Z,1015.00
2022-07-25T02:43:16.741Z,1015.20
2022-07-25T02:43:47.979Z,1015.20
2022-07-25T02:44:21.420Z,1014.80
2022-07-25T02:44:49.709Z,1014.80
2022-07-25T02:45:21.588Z,1014.90
2022-07-25T02:45:51.832Z,1014.90
2022-07-25T02:46:22.729Z,1015.00
2022-07-25T02:46:56.379Z,1015.00
2022-07-25T02:47:24.542Z,1014.90
2022-07-25T02:48:04.899Z,1014.70
2022-07-25T02:48:26.534Z,1014.70
2022-07-25T02:48:58.759Z,1014.70
2022-07-25T02:49:28.992Z,1014.90
2022-07-25T02:49:59.739Z,1014.90
2022-07-25T02:50:31.104Z,1014.90
2022-07-25T02:51:01.193Z,1015.00
2022-07-25T02:51:32.604Z,1015.00
2022-07-25T02:52:09.539Z,1014.90
2022-07-25T02:52:34.712Z,1014.90
2022-07-25T02:53:05.640Z,1014.80
2022-07-25T02:53:55.872Z,1014.80
2022-07-25T02:54:10.758Z,1014.80
2022-07-25T02:54:43.969Z,1014.80
2022-07-25T02:55:10.117Z,1015.10
2022-07-25T02:55:40.860Z,1015.10
2022-07-25T02:56:14.298Z,1015.00
2022-07-25T02:56:42.590Z,1015.00
2022-07-25T02:57:14.188Z,1014.70
2022-07-25T02:57:44.472Z,1014.70
2022-07-25T02:58:18.241Z,1014.90
2022-07-25T02:58:52.392Z,1014.90
2022-07-25T02:59:17.391Z,1015.00
2022-07-25T02:59:48.142Z,1015.00
2022-07-25T03:00:20.920Z,1014.90
2022-07-25T03:00:50.624Z,1014.90
2022-07-25T03:01:21.937Z,1015.00
2022-07-25T03:01:54.519Z,1015.00
2022-07-25T03:02:23.350Z,1014.90
2022-07-25T03:02:56.740Z,1014.90
2022-07-25T03:03:28.440Z,1014.70
2022-07-25T03:03:57.543Z,1014.70
2022-07-25T03:04:27.705Z,1015.00
2022-07-25T03:04:58.590Z,1015.00
2022-07-25T03:05:30.779Z,1014.90
2022-07-25T03:06:00.579Z,1014.90
2022-07-25T03:06:31.779Z,1014.59
2022-07-25T03:07:02.232Z,1014.80
2022-07-25T03:07:33.639Z,1014.80
2022-07-25T03:08:04.538Z,1014.59
2022-07-25T03:08:35.581Z,1014.59
2022-07-25T03:09:09.714Z,1014.80
2022-07-25T03:09:37.191Z,1014.80
2022-07-25T03:10:10.957Z,1014.90
2022-07-25T03:10:39.706Z,1014.90
2022-07-25T03:11:10.275Z,1014.90
2022-07-25T03:11:41.619Z,1014.90
2022-07-25T03:12:12.771Z,1014.80
2022-07-25T03:12:43.854Z,1014.80
2022-07-25T03:13:17.191Z,1014.59
2022-07-25T03:13:45.714Z,1014.59
2022-07-25T03:14:16.852Z,1014.80
2022-07-25T03:14:47.419Z,1014.80
2022-07-25T03:15:19.658Z,1014.70
2022-07-25T03:15:49.751Z,1014.70
2022-07-25T03:16:20.630Z,1014.80
2022-07-25T03:16:51.878Z,1014.80
2022-07-25T03:17:22.709Z,1014.59
2022-07-25T03:17:54.223Z,1014.59
2022-07-25T03:18:24.230Z,1014.59
2022-07-25T03:18:56.471Z,1014.59
2022-07-25T03:19:26.739Z,1014.80
2022-07-25T03:19:57.877Z,1014.80
2022-07-25T03:20:29.219Z,1014.70
2022-07-25T03:21:02.674Z,1014.59
2022-07-25T03:21:30.261Z,1014.59
2022-07-25T03:22:01.750Z,1014.70
2022-07-25T03:22:32.739Z,1014.70
2022-07-25T03:23:04.018Z,1014.80
2022-07-25T03:23:35.068Z,1014.80
2022-07-25T03:24:05.854Z,1014.70
2022-07-25T03:24:36.711Z,1014.70
2022-07-25T03:25:15.553Z,1014.80
2022-07-25T03:25:38.634Z,1014.80
2022-07-25T03:26:09.878Z,1014.90
2022-07-25T03:26:43.790Z,1014.90
2022-07-25T03:27:11.955Z,1014.80
2022-07-25T03:27:43.074Z,1014.80
2022-07-25T03:28:13.880Z,1014.70
2022-07-25T03:28:44.795Z,1014.70
2022-07-25T03:29:15.258Z,1014.59
2022-07-25T03:29:46.299Z,1014.59
2022-07-25T03:30:19.044Z,1014.80
2022-07-25T03:30:48.819Z,1014.80
2022-07-25T03:31:19.777Z,1014.70
2022-07-25T03:31:50.718Z,1014.70
2022-07-25T03:32:21.991Z,1014.80
2022-07-25T03:32:53.150Z,1014.80
2022-07-25T03:33:28.659Z,1014.90
2022-07-25T03:33:54.418Z,1014.90
2022-07-25T03:34:26.949Z,1014.70
2022-07-25T03:34:56.741Z,1014.70
2022-07-25T03:35:29.150Z,1015.10
2022-07-25T03:35:59.091Z,1015.10
2022-07-25T03:36:30.858Z,1014.70
2022-07-25T03:37:00.621Z,1014.70
2022-07-25T03:37:31.899Z,1014.80
2022-07-25T03:38:06.241Z,1014.80
2022-07-25T03:38:34.139Z,1014.80
2022-07-25T03:39:05.639Z,1014.90
2022-07-25T03:39:35.778Z,1014.90
2022-07-25T03:40:07.117Z,1014.70
2022-07-25T03:40:39.682Z,1014.70
2022-07-25T03:41:08.916Z,1014.80
2022-07-25T03:41:39.830Z,1014.80
2022-07-25T03:42:10.427Z,1014.59
2022-07-25T03:42:41.845Z,1014.59
2022-07-25T03:43:13.075Z,1014.59
2022-07-25T03:43:43.475Z,1014.59
2022-07-25T03:44:14.339Z,1014.70
2022-07-25T03:44:45.720Z,1014.70
2022-07-25T03:45:17.993Z,1014.80
2022-07-25T03:45:48.268Z,1014.80
2022-07-25T03:46:19.047Z,1014.39
2022-07-25T03:46:50.018Z,1014.39
2022-07-25T03:47:21.071Z,1014.59
2022-07-25T03:47:51.397Z,1014.59
2022-07-25T03:48:23.251Z,1014.70
2022-07-25T03:48:53.999Z,1014.70
2022-07-25T03:49:24.781Z,1014.70
2022-07-25T03:49:55.920Z,1014.70
2022-07-25T03:50:27.230Z,1014.49
2022-07-25T03:50:57.819Z,1014.49
2022-07-25T03:51:28.913Z,1014.59
2022-07-25T03:51:59.669Z,1014.59
2022-07-25T03:52:31.060Z,1014.59
2022-07-25T03:53:04.962Z,1014.39
2022-07-25T03:53:32.910Z,1014.39
2022-07-25T03:54:06.951Z,1014.39
2022-07-25T03:54:35.162Z,1014.39
2022-07-25T03:55:07.550Z,1014.49
2022-07-25T03:55:36.909Z,1014.49
2022-07-25T03:56:07.828Z,1014.39
2022-07-25T03:56:43.871Z,1014.39
2022-07-25T03:57:09.871Z,1014.70
2022-07-25T03:57:41.059Z,1014.70
2022-07-25T03:58:11.979Z,1014.49
2022-07-25T03:58:43.269Z,1014.49
2022-07-25T03:59:14.185Z,1014.29
2022-07-25T03:59:45.031Z,1014.29
2022-07-25T04:00:17.390Z,1014.49
2022-07-25T04:00:46.943Z,1014.49
2022-07-25T04:01:20.497Z,1014.49
2022-07-25T04:01:49.254Z,1014.49
2022-07-25T04:02:20.068Z,1014.59
2022-07-25T04:02:51.037Z,1014.59
2022-07-25T04:03:24.795Z,1014.49
2022-07-25T04:03:52.998Z,1014.49
2022-07-25T04:04:26.674Z,1014.49
2022-07-25T04:05:03.059Z,1014.29
2022-07-25T04:05:29.109Z,1014.29
2022-07-25T04:05:59.106Z,1014.29
2022-07-25T04:06:30.832Z,1014.39
2022-07-25T04:07:00.199Z,1014.39
2022-07-25T04:07:30.154Z,1014.39
2022-07-25T04:08:01.240Z,1014.39
2022-07-25T04:08:31.980Z,1014.29
2022-07-25T04:09:09.751Z,1014.39
2022-07-25T04:09:34.149Z,1014.39
2022-07-25T04:10:05.069Z,1014.70
2022-07-25T04:10:36.036Z,1014.70
2022-07-25T04:11:06.739Z,1014.70
2022-07-25T04:11:38.349Z,1014.70
2022-07-25T04:12:09.230Z,1014.39
2022-07-25T04:12:40.138Z,1014.39
2022-07-25T04:13:13.499Z,1014.29
2022-07-25T04:13:42.160Z,1014.29
2022-07-25T04:14:15.861Z,1014.59
2022-07-25T04:14:44.223Z,1014.59
2022-07-25T04:15:16.482Z,1014.49
2022-07-25T04:15:46.026Z,1014.49
2022-07-25T04:16:22.028Z,1014.39
2022-07-25T04:16:48.299Z,1014.39
2022-07-25T04:17:19.113Z,1014.80
2022-07-25T04:17:50.110Z,1014.80
2022-07-25T04:18:21.832Z,1014.49
2022-07-25T04:18:51.828Z,1014.49
2022-07-25T04:19:22.899Z,1014.59
2022-07-25T04:19:53.833Z,1014.59
2022-07-25T04:20:25.100Z,1014.39
2022-07-25T04:20:57.199Z,1014.39
2022-07-25T04:21:26.913Z,1014.59
2022-07-25T04:21:57.906Z,1014.59
2022-07-25T04:22:29.150Z,1014.49
2022-07-25T04:22:59.900Z,1014.49
2022-07-25T04:23:30.619Z,1014.39
2022-07-25T04:24:01.898Z,1014.59
2022-07-25T04:24:33.060Z,1014.59
2022-07-25T04:25:03.955Z,1014.59
2022-07-25T04:25:35.500Z,1014.59
2022-07-25T04:26:05.750Z,1014.49
2022-07-25T04:26:40.120Z,1014.49
2022-07-25T04:27:07.699Z,1014.59
2022-07-25T04:27:41.909Z,1014.59
2022-07-25T04:28:09.898Z,1014.39
2022-07-25T04:28:43.899Z,1014.39
2022-07-25T04:29:11.560Z,1014.39
2022-07-25T04:29:43.195Z,1014.39
2022-07-25T04:30:24.145Z,1014.70
2022-07-25T04:30:44.820Z,1014.70
2022-07-25T04:31:16.208Z,1014.09
2022-07-25T04:31:50.058Z,1014.09
2022-07-25T04:32:22.826Z,1014.39
2022-07-25T04:32:49.039Z,1014.39
2022-07-25T04:33:19.854Z,1014.59
2022-07-25T04:33:50.861Z,1014.59
2022-07-25T04:34:24.509Z,1014.59
2022-07-25T04:34:56.150Z,1014.59
2022-07-25T04:35:24.195Z,1014.49
2022-07-25T04:35:55.062Z,1014.49
2022-07-25T04:36:28.193Z,1014.39
2022-07-25T04:36:56.867Z,1014.39
2022-07-25T04:37:30.149Z,1014.59
2022-07-25T04:37:58.853Z,1014.59
2022-07-25T04:38:31.010Z,1014.39
2022-07-25T04:39:00.909Z,1014.39
2022-07-25T04:39:31.901Z,1014.29
2022-07-25T04:40:04.114Z,1014.29
2022-07-25T04:40:33.859Z,1014.29
2022-07-25T04:41:05.138Z,1014.39
2022-07-25T04:41:38.380Z,1014.39
2022-07-25T04:42:06.754Z,1014.29
2022-07-25T04:42:37.792Z,1014.29
2022-07-25T04:43:08.950Z,1014.39
2022-07-25T04:43:43.609Z,1014.39
2022-07-25T04:44:10.778Z,1014.49
2022-07-25T04:44:41.990Z,1014.49
2022-07-25T04:45:14.345Z,1014.09
2022-07-25T04:45:47.059Z,1014.09
2022-07-25T04:46:15.118Z,1014.29
2022-07-25T04:46:45.946Z,1014.29
2022-07-25T04:47:16.916Z,1014.59
2022-07-25T04:47:49.513Z,1014.59
2022-07-25T04:48:18.979Z,1014.19
2022-07-25T04:48:52.969Z,1014.19
2022-07-25T04:49:20.970Z,1014.59
2022-07-25T04:49:52.065Z,1014.59
2022-07-25T04:50:25.109Z,1014.39
2022-07-25T04:50:53.711Z,1014.39
2022-07-25T04:51:27.954Z,1014.49
2022-07-25T04:51:58.917Z,1014.49
2022-07-25T04:52:27.378Z,1014.29
2022-07-25T04:52:58.457Z,1014.29
2022-07-25T04:53:29.260Z,1014.09
2022-07-25T04:54:00.180Z,1014.09
2022-07-25T04:54:31.022Z,1014.49
2022-07-25T04:55:02.817Z,1014.59
2022-07-25T04:55:33.264Z,1014.59
2022-07-25T04:56:04.233Z,1014.29
2022-07-25T04:56:35.099Z,1014.29
2022-07-25T04:57:06.538Z,1014.59
2022-07-25T04:57:37.179Z,1014.59
2022-07-25T04:58:08.310Z,1014.29
2022-07-25T04:58:39.309Z,1014.29
2022-07-25T04:59:10.267Z,1014.49
2022-07-25T04:59:41.379Z,1014.49
2022-07-25T05:00:12.741Z,1014.29
2022-07-25T05:00:43.395Z,1014.29
2022-07-25T05:01:13.732Z,1014.39
2022-07-25T05:01:47.545Z,1014.39
2022-07-25T05:02:16.019Z,1014.70
2022-07-25T05:02:46.875Z,1014.70
2022-07-25T05:03:17.841Z,1014.29
2022-07-25T05:03:50.590Z,1014.29
2022-07-25T05:04:20.475Z,1014.39
2022-07-25T05:04:52.057Z,1014.39
2022-07-25T05:05:22.786Z,1014.39
2022-07-25T05:05:52.808Z,1014.39
2022-07-25T05:06:24.074Z,1014.70
2022-07-25T05:06:54.851Z,1014.70
2022-07-25T05:07:28.904Z,1014.49
2022-07-25T05:07:59.231Z,1014.49
2022-07-25T05:08:27.880Z,1014.29
2022-07-25T05:09:00.983Z,1014.29
2022-07-25T05:09:30.040Z,1014.39
2022-07-25T05:10:02.194Z,1014.49
2022-07-25T05:10:38.271Z,1014.49
2022-07-25T05:11:05.594Z,1014.29
2022-07-25T05:11:34.023Z,1014.29
2022-07-25T05:12:05.544Z,1014.29
2022-07-25T05:12:36.619Z,1014.29
2022-07-25T05:13:07.072Z,1014.49
2022-07-25T05:13:38.109Z,1014.49
2022-07-25T05:14:11.635Z,1014.29
2022-07-25T05:14:40.040Z,1014.29
2022-07-25T05:15:14.724Z,1014.29
2022-07-25T05:15:41.980Z,1014.29
2022-07-25T05:16:13.176Z,1014.39
2022-07-25T05:16:45.007Z,1014.39
2022-07-25T05:17:14.714Z,1014.49
2022-07-25T05:17:48.632Z,1014.49
2022-07-25T05:18:16.890Z,1014.49
2022-07-25T05:18:48.099Z,1014.49
2022-07-25T05:19:19.340Z,1014.39
2022-07-25T05:19:49.884Z,1014.39
2022-07-25T05:20:22.314Z,1014.39
2022-07-25T05:20:52.179Z,1014.39
2022-07-25T05:21:25.897Z,1014.19
2022-07-25T05:21:54.065Z,1014.19
2022-07-25T05:22:29.103Z,1014.29
2022-07-25T05:22:56.019Z,1014.29
2022-07-25T05:23:32.859Z,1014.29
2022-07-25T05:23:58.620Z,1014.29
2022-07-25T05:24:29.109Z,1014.29
2022-07-25T05:25:00.000Z,1014.29
2022-07-25T05:25:34.191Z,1014.19
2022-07-25T05:26:02.279Z,1014.29
2022-07-25T05:26:32.960Z,1014.29
2022-07-25T05:27:03.948Z,1014.39
2022-07-25T05:27:34.982Z,1014.39
2022-07-25T05:28:05.910Z,1014.39
2022-07-25T05:28:37.751Z,1014.39
2022-07-25T05:29:07.997Z,1014.29
2022-07-25T05:29:38.996Z,1014.29
2022-07-25T05:30:13.604Z,1014.39
2022-07-25T05:30:40.953Z,1014.39
2022-07-25T05:31:12.394Z,1014.59
2022-07-25T05:31:42.861Z,1014.59
2022-07-25T05:32:14.190Z,1014.39
2022-07-25T05:32:45.178Z,1014.39
2022-07-25T05:33:16.144Z,1014.29
2022-07-25T05:33:49.900Z,1014.29
2022-07-25T05:34:21.030Z,1014.19
2022-07-25T05:34:49.051Z,1014.19
2022-07-25T05:35:22.139Z,1014.49
2022-07-25T05:35:51.138Z,1014.49
2022-07-25T05:36:22.499Z,1014.29
2022-07-25T05:36:53.109Z,1014.29
2022-07-25T05:37:26.514Z,1014.49
2022-07-25T05:37:54.778Z,1014.49
2022-07-25T05:38:25.938Z,1014.39
2022-07-25T05:38:57.190Z,1014.39
2022-07-25T05:39:29.319Z,1014.70
2022-07-25T05:40:01.954Z,1014.70
2022-07-25T05:40:31.475Z,1014.29
2022-07-25T05:41:01.241Z,1014.29
2022-07-25T05:41:33.417Z,1014.09
2022-07-25T05:42:03.149Z,1014.39
2022-07-25T05:42:34.190Z,1014.39
2022-07-25T05:43:05.169Z,1014.29
2022-07-25T05:43:41.620Z,1014.29
2022-07-25T05:44:07.694Z,1014.29
2022-07-25T05:44:38.431Z,1014.29
2022-07-25T05:45:09.962Z,1014.49
2022-07-25T05:45:40.251Z,1014.49
2022-07-25T05:46:11.272Z,1014.29
2022-07-25T05:46:42.278Z,1014.29
2022-07-25T05:47:12.935Z,1014.39
2022-07-25T05:47:43.797Z,1014.39
2022-07-25T05:48:14.870Z,1014.39
2022-07-25T05:48:46.221Z,1014.39
2022-07-25T05:49:17.315Z,1014.29
2022-07-25T05:49:51.670Z,1014.29
2022-07-25T05:50:19.882Z,1014.39
2022-07-25T05:50:50.298Z,1014.39
2022-07-25T05:51:21.309Z,1014.49
2022-07-25T05:51:52.229Z,1014.49
2022-07-25T05:52:23.315Z,1014.39
2022-07-25T05:52:54.349Z,1014.39
2022-07-25T05:53:25.259Z,1014.19
2022-07-25T05:53:55.993Z,1014.19
2022-07-25T05:54:29.778Z,1014.29
2022-07-25T05:54:58.418Z,1014.29
2022-07-25T05:55:34.438Z,1014.39
2022-07-25T05:56:00.025Z,1014.39
2022-07-25T05:56:31.357Z,1014.19
2022-07-25T05:57:02.229Z,1014.29
2022-07-25T05:57:33.699Z,1014.29
2022-07-25T05:58:04.858Z,1014.39
2022-07-25T05:58:35.354Z,1014.39
2022-07-25T05:59:06.370Z,1014.19
2022-07-25T05:59:37.381Z,1014.19
2022-07-25T06:00:09.019Z,1014.39
2022-07-25T06:00:39.372Z,1014.39
2022-07-25T06:01:12.830Z,1014.19
2022-07-25T06:01:41.370Z,1014.19
2022-07-25T06:02:12.347Z,1014.29
2022-07-25T06:02:43.676Z,1014.29
2022-07-25T06:03:17.682Z,1014.29
2022-07-25T06:03:45.584Z,1014.29
2022-07-25T06:04:16.341Z,1014.39
2022-07-25T06:04:48.030Z,1014.39
2022-07-25T06:05:19.099Z,1014.39
2022-07-25T06:05:49.429Z,1014.39
2022-07-25T06:06:20.259Z,1014.49
2022-07-25T06:06:51.282Z,1014.49
2022-07-25T06:07:25.064Z,1014.49
2022-07-25T06:07:53.259Z,1014.49
2022-07-25T06:08:24.063Z,1014.29
2022-07-25T06:08:55.790Z,1014.29
2022-07-25T06:09:26.385Z,1014.19
2022-07-25T06:09:57.355Z,1014.19
2022-07-25T06:10:28.659Z,1014.39
2022-07-25T06:11:01.499Z,1014.39
2022-07-25T06:11:30.750Z,1014.39
2022-07-25T06:12:02.669Z,1014.19
2022-07-25T06:12:32.350Z,1014.19
2022-07-25T06:13:04.057Z,1014.09
2022-07-25T06:13:34.637Z,1014.09
2022-07-25T06:14:05.876Z,1013.98
2022-07-25T06:14:37.418Z,1013.98
2022-07-25T06:15:12.542Z,1014.39